createdAt,value
2019-05-12T00:00:43.674Z,1009.48
2019-05-12T00:01:43.697Z,1009.47
2019-05-12T00:02:43.703Z,1009.51
2019-05-12T00:03:43.745Z,1009.53
2019-05-12T00:04:43.740Z,1009.50
2019-05-12T00:05:43.747Z,1009.51
2019-05-12T00:06:43.771Z,1009.54
2019-05-12T00:07:43.781Z,1009.51
2019-05-12T00:08:43.793Z,1009.52
2019-05-12T00:09:43.806Z,1009.49
2019-05-12T00:10:43.823Z,1009.55
2019-05-12T00:11:43.844Z,1009.57
2019-05-12T00:12:43.853Z,1009.54
2019-05-12T00:13:43.871Z,1009.55
2019-05-12T00:14:43.885Z,1009.57
2019-05-12T00:15:43.899Z,1009.59
2019-05-12T00:16:43.918Z,1009.59
2019-05-12T00:17:44.069Z,1009.58
2019-05-12T00:18:43.945Z,1009.62
2019-05-12T00:19:43.965Z,1009.56
2019-05-12T00:20:43.976Z,1009.59
2019-05-12T00:21:43.990Z,1009.61
2019-05-12T00:22:44.006Z,1009.58
2019-05-12T00:23:44.027Z,1009.57
2019-05-12T00:24:44.043Z,1009.59
2019-05-12T00:25:44.050Z,1009.58
2019-05-12T00:26:44.066Z,1009.56
2019-05-12T00:27:44.081Z,1009.55
2019-05-12T00:28:44.097Z,1009.59
2019-05-12T00:29:44.112Z,1009.57
2019-05-12T00:30:44.127Z,1009.58
2019-05-12T00:31:44.147Z,1009.60
2019-05-12T00:32:44.162Z,1009.61
2019-05-12T00:33:44.169Z,1009.63
2019-05-12T00:34:44.188Z,1009.67
2019-05-12T00:35:44.202Z,1009.64
2019-05-12T00:36:44.220Z,1009.69
2019-05-12T00:37:44.242Z,1009.70
2019-05-12T00:38:44.263Z,1009.69
2019-05-12T00:39:44.298Z,1009.70
2019-05-12T00:40:44.291Z,1009.66
2019-05-12T00:41:44.666Z,1009.69
2019-05-12T00:42:44.309Z,1009.65
2019-05-12T00:43:44.444Z,1009.65
2019-05-12T00:44:44.337Z,1009.73
2019-05-12T00:45:44.350Z,1009.73
2019-05-12T00:46:44.367Z,1009.81
2019-05-12T00:47:44.380Z,1009.82
2019-05-12T00:48:44.401Z,1009.83
2019-05-12T00:49:44.410Z,1009.86
2019-05-12T00:50:44.424Z,1009.86
2019-05-12T00:51:44.449Z,1009.86
2019-05-12T00:52:44.456Z,1009.90
2019-05-12T00:53:44.470Z,1009.90
2019-05-12T00:54:44.485Z,1009.94
2019-05-12T00:55:44.502Z,1009.97
2019-05-12T00:56:44.519Z,1010.00
2019-05-12T00:57:44.530Z,1010.00
2019-05-12T00:58:44.541Z,1010.01
2019-05-12T00:59:44.560Z,1010.04
2019-05-12T01:00:44.579Z,1010.06
2019-05-12T01:01:44.590Z,1010.08
2019-05-12T01:02:44.602Z,1010.08
2019-05-12T01:03:44.614Z,1010.10
2019-05-12T01:04:44.636Z,1010.08
2019-05-12T01:05:44.655Z,1010.11
2019-05-12T01:06:44.660Z,1010.16
2019-05-12T01:07:44.674Z,1010.19
2019-05-12T01:08:44.703Z,1010.15
2019-05-12T01:09:44.710Z,1010.18
2019-05-12T01:10:44.725Z,1010.20
2019-05-12T01:11:44.745Z,1010.21
2019-05-12T01:12:44.763Z,1010.23
2019-05-12T01:13:44.769Z,1010.23
2019-05-12T01:14:44.779Z,1010.25
2019-05-12T01:15:44.792Z,1010.28
2019-05-12T01:16:44.809Z,1010.27
2019-05-12T01:17:44.831Z,1010.30
2019-05-12T01:18:44.879Z,1010.33
2019-05-12T01:19:44.849Z,1010.32
2019-05-12T01:20:44.871Z,1010.33
2019-05-12T01:21:44.881Z,1010.38
2019-05-12T01:22:44.893Z,1010.41
2019-05-12T01:23:56.395Z,1010.39
2019-05-12T01:24:44.927Z,1010.43
2019-05-12T01:25:44.937Z,1010.46
2019-05-12T01:26:44.952Z,1010.46
2019-05-12T01:27:44.965Z,1010.47
2019-05-12T01:28:44.985Z,1010.48
2019-05-12T01:29:44.995Z,1010.50
2019-05-12T01:30:45.015Z,1010.48
2019-05-12T01:31:45.023Z,1010.46
2019-05-12T01:32:45.050Z,1010.49
2019-05-12T01:33:45.056Z,1010.52
2019-05-12T01:34:45.067Z,1010.54
2019-05-12T01:35:45.083Z,1010.58
2019-05-12T01:36:45.099Z,1010.59
2019-05-12T01:37:45.112Z,1010.63
2019-05-12T01:38:45.133Z,1010.65
2019-05-12T01:39:45.145Z,1010.67
2019-05-12T01:40:45.154Z,1010.69
2019-05-12T01:41:45.169Z,1010.69
2019-05-12T01:42:45.182Z,1010.75
2019-05-12T01:43:45.211Z,1010.69
2019-05-12T01:44:45.215Z,1010.74
2019-05-12T01:45:45.241Z,1010.77
2019-05-12T01:46:45.248Z,1010.76
2019-05-12T01:47:45.259Z,1010.79
2019-05-12T01:48:45.272Z,1010.83
2019-05-12T01:49:45.287Z,1010.85
2019-05-12T01:50:47.448Z,1010.86
2019-05-12T01:51:47.540Z,1010.93
2019-05-12T01:52:47.701Z,1010.92
2019-05-12T01:53:45.347Z,1010.97
2019-05-12T01:54:45.369Z,1010.96
2019-05-12T01:55:45.376Z,1011.03
2019-05-12T01:56:45.388Z,1011.03
2019-05-12T01:57:45.410Z,1011.04
2019-05-12T01:58:45.418Z,1011.05
2019-05-12T01:59:45.436Z,1011.07
2019-05-12T02:00:45.445Z,1011.11
2019-05-12T02:01:45.470Z,1011.11
2019-05-12T02:02:47.895Z,1011.16
2019-05-12T02:03:45.491Z,1011.18
2019-05-12T02:04:45.512Z,1011.21
2019-05-12T02:05:45.526Z,1011.23
2019-05-12T02:06:45.537Z,1011.21
2019-05-12T02:07:47.816Z,1011.23
2019-05-12T02:08:47.654Z,1011.24
2019-05-12T02:09:48.007Z,1011.32
2019-05-12T02:10:47.978Z,1011.32
2019-05-12T02:11:45.613Z,1011.34
2019-05-12T02:12:45.628Z,1011.33
2019-05-12T02:13:45.638Z,1011.37
2019-05-12T02:14:45.650Z,1011.37
2019-05-12T02:15:45.667Z,1011.37
2019-05-12T02:16:47.601Z,1011.41
2019-05-12T02:17:47.972Z,1011.43
2019-05-12T02:18:45.711Z,1011.42
2019-05-12T02:19:47.991Z,1011.47
2019-05-12T02:20:45.739Z,1011.51
2019-05-12T02:21:45.753Z,1011.54
2019-05-12T02:22:47.781Z,1011.57
2019-05-12T02:23:47.668Z,1011.56
2019-05-12T02:24:47.770Z,1011.57
2019-05-12T02:25:48.136Z,1011.58
2019-05-12T02:26:45.830Z,1011.59
2019-05-12T02:27:47.623Z,1011.63
2019-05-12T02:28:47.905Z,1011.61
2019-05-12T02:29:48.038Z,1011.64
2019-05-12T02:30:45.887Z,1011.65
2019-05-12T02:31:45.923Z,1011.70
2019-05-12T02:32:52.478Z,1011.69
2019-05-12T02:33:45.936Z,1011.68
2019-05-12T02:34:45.951Z,1011.74
2019-05-12T02:35:45.963Z,1011.77
2019-05-12T02:36:45.994Z,1011.80
2019-05-12T02:37:45.994Z,1011.76
2019-05-12T02:38:46.006Z,1011.79
2019-05-12T02:39:46.020Z,1011.79
2019-05-12T02:40:46.038Z,1011.83
2019-05-12T02:41:46.057Z,1011.85
2019-05-12T02:42:46.672Z,1011.86
2019-05-12T02:43:46.176Z,1011.87
2019-05-12T02:44:46.107Z,1011.82
2019-05-12T02:45:46.113Z,1011.82
2019-05-12T02:46:46.132Z,1011.81
2019-05-12T02:47:46.140Z,1011.79
2019-05-12T02:48:46.162Z,1011.82
2019-05-12T02:49:46.185Z,1011.86
2019-05-12T02:50:46.196Z,1011.86
2019-05-12T02:51:46.203Z,1011.86
2019-05-12T02:52:46.222Z,1011.90
2019-05-12T02:53:47.279Z,1011.95
2019-05-12T02:54:55.279Z,1011.97
2019-05-12T02:55:46.270Z,1012.00
2019-05-12T02:56:46.285Z,1011.97
2019-05-12T02:57:46.295Z,1012.00
2019-05-12T02:58:46.304Z,1011.95
2019-05-12T02:59:46.325Z,1012.01
2019-05-12T03:00:46.342Z,1012.00
2019-05-12T03:01:46.357Z,1012.02
2019-05-12T03:02:46.369Z,1012.05
2019-05-12T03:03:46.383Z,1012.11
2019-05-12T03:04:46.398Z,1012.10
2019-05-12T03:05:46.418Z,1012.12
2019-05-12T03:06:46.428Z,1012.15
2019-05-12T03:07:46.447Z,1012.17
2019-05-12T03:08:46.466Z,1012.18
2019-05-12T03:09:46.474Z,1012.18
2019-05-12T03:10:46.490Z,1012.16
2019-05-12T03:11:46.506Z,1012.19
2019-05-12T03:12:46.526Z,1012.20
2019-05-12T03:13:46.535Z,1012.17
2019-05-12T03:14:46.552Z,1012.16
2019-05-12T03:15:46.563Z,1012.16
2019-05-12T03:16:46.581Z,1012.19
2019-05-12T03:17:46.594Z,1012.20
2019-05-12T03:18:46.613Z,1012.19
2019-05-12T03:19:46.631Z,1012.18
2019-05-12T03:20:46.652Z,1012.22
2019-05-12T03:21:46.657Z,1012.22
2019-05-12T03:22:46.674Z,1012.23
2019-05-12T03:23:46.688Z,1012.21
2019-05-12T03:25:05.942Z,1012.22
2019-05-12T03:25:46.725Z,1012.24
2019-05-12T03:26:46.734Z,1012.26
2019-05-12T03:27:46.759Z,1012.24
2019-05-12T03:28:46.761Z,1012.27
2019-05-12T03:29:46.772Z,1012.27
2019-05-12T03:30:48.847Z,1012.25
2019-05-12T03:31:48.796Z,1012.28
2019-05-12T03:32:47.839Z,1012.26
2019-05-12T03:33:52.915Z,1012.27
2019-05-12T03:34:47.784Z,1012.30
2019-05-12T03:35:53.035Z,1012.33
2019-05-12T03:36:51.324Z,1012.34
2019-05-12T03:37:47.089Z,1012.36
2019-05-12T03:38:46.983Z,1012.36
2019-05-12T03:39:46.956Z,1012.41
2019-05-12T03:40:46.948Z,1012.39
2019-05-12T03:41:46.955Z,1012.41
2019-05-12T03:42:46.973Z,1012.41
2019-05-12T03:43:47.009Z,1012.38
2019-05-12T03:44:47.004Z,1012.40
2019-05-12T03:45:47.021Z,1012.43
2019-05-12T03:46:47.037Z,1012.45
2019-05-12T03:47:47.051Z,1012.44
2019-05-12T03:48:47.065Z,1012.44
2019-05-12T03:49:47.136Z,1012.46
2019-05-12T03:50:47.100Z,1012.49
2019-05-12T03:51:47.107Z,1012.51
2019-05-12T03:52:47.124Z,1012.52
2019-05-12T03:53:47.182Z,1012.53
2019-05-12T03:54:47.155Z,1012.56
2019-05-12T03:55:47.479Z,1012.58
2019-05-12T03:56:47.183Z,1012.58
2019-05-12T03:57:47.202Z,1012.59
2019-05-12T03:58:47.225Z,1012.65
2019-05-12T03:59:47.233Z,1012.66
2019-05-12T04:00:47.255Z,1012.74
2019-05-12T04:01:47.263Z,1012.77
2019-05-12T04:02:47.277Z,1012.76
2019-05-12T04:03:47.293Z,1012.74
2019-05-12T04:04:47.314Z,1012.76
2019-05-12T04:05:47.323Z,1012.83
2019-05-12T04:06:47.344Z,1012.79
2019-05-12T04:07:47.354Z,1012.82
2019-05-12T04:08:47.368Z,1012.85
2019-05-12T04:09:47.384Z,1012.85
2019-05-12T04:10:47.397Z,1012.86
2019-05-12T04:11:47.417Z,1012.92
2019-05-12T04:12:47.435Z,1012.94
2019-05-12T04:13:47.444Z,1012.97
2019-05-12T04:14:47.464Z,1012.97
2019-05-12T04:15:47.479Z,1013.01
2019-05-12T04:16:47.496Z,1013.01
2019-05-12T04:17:47.510Z,1013.05
2019-05-12T04:18:47.522Z,1013.03
2019-05-12T04:19:47.536Z,1013.12
2019-05-12T04:20:47.552Z,1013.10
2019-05-12T04:21:47.574Z,1013.13
2019-05-12T04:22:47.577Z,1013.20
2019-05-12T04:23:47.599Z,1013.18
2019-05-12T04:24:47.611Z,1013.27
2019-05-12T04:25:52.887Z,1013.23
2019-05-12T04:26:47.639Z,1013.28
2019-05-12T04:27:47.659Z,1013.29
2019-05-12T04:28:47.677Z,1013.31
2019-05-12T04:29:47.688Z,1013.35
2019-05-12T04:30:47.751Z,1013.34
2019-05-12T04:31:47.722Z,1013.41
2019-05-12T04:32:47.735Z,1013.43
2019-05-12T04:33:47.755Z,1013.47
2019-05-12T04:34:47.763Z,1013.47
2019-05-12T04:35:47.786Z,1013.48
2019-05-12T04:36:47.794Z,1013.55
2019-05-12T04:37:47.810Z,1013.55
2019-05-12T04:38:47.828Z,1013.54
2019-05-12T04:39:47.875Z,1013.54
2019-05-12T04:40:47.856Z,1013.59
2019-05-12T04:41:47.894Z,1013.60
2019-05-12T04:42:47.900Z,1013.59
2019-05-12T04:43:47.909Z,1013.57
2019-05-12T04:44:47.930Z,1013.63
2019-05-12T04:45:47.953Z,1013.67
2019-05-12T04:46:47.946Z,1013.67
2019-05-12T04:47:47.962Z,1013.72
2019-05-12T04:48:47.981Z,1013.70
2019-05-12T04:49:47.993Z,1013.69
2019-05-12T04:50:48.028Z,1013.72
2019-05-12T04:51:48.030Z,1013.79
2019-05-12T04:52:48.035Z,1013.82
2019-05-12T04:53:48.066Z,1013.88
2019-05-12T04:54:48.078Z,1013.89
2019-05-12T04:56:06.274Z,1014.13
2019-05-12T04:56:48.113Z,1013.97
2019-05-12T04:57:48.120Z,1013.98
2019-05-12T04:58:48.138Z,1013.97
2019-05-12T04:59:48.149Z,1013.97
2019-05-12T05:00:48.165Z,1014.00
2019-05-12T05:01:48.181Z,1014.16
2019-05-12T05:02:48.195Z,1014.05
2019-05-12T05:03:48.218Z,1014.09
2019-05-12T05:04:48.224Z,1014.42
2019-05-12T05:05:48.238Z,1014.61
2019-05-12T05:06:48.259Z,1014.19
2019-05-12T05:07:48.275Z,1014.08
2019-05-12T05:08:48.303Z,1014.09
2019-05-12T05:09:48.305Z,1014.16
2019-05-12T05:10:48.322Z,1014.12
2019-05-12T05:11:48.344Z,1014.15
2019-05-12T05:12:48.356Z,1014.14
2019-05-12T05:13:48.369Z,1014.18
2019-05-12T05:14:48.385Z,1014.11
2019-05-12T05:15:48.403Z,1014.17
2019-05-12T05:16:48.422Z,1014.18
2019-05-12T05:17:48.435Z,1014.15
2019-05-12T05:18:48.452Z,1014.21
2019-05-12T05:19:48.464Z,1014.23
2019-05-12T05:20:48.481Z,1014.28
2019-05-12T05:21:48.501Z,1014.28
2019-05-12T05:22:48.509Z,1014.26
2019-05-12T05:23:48.528Z,1014.26
2019-05-12T05:24:48.546Z,1014.29
2019-05-12T05:25:48.566Z,1014.92
2019-05-12T05:26:48.580Z,1015.11
2019-05-12T05:27:48.595Z,1014.49
2019-05-12T05:28:48.614Z,1014.73
2019-05-12T05:29:48.631Z,1015.40
2019-05-12T05:30:48.643Z,1014.69
2019-05-12T05:31:48.660Z,1014.89
2019-05-12T05:32:48.670Z,1014.70
2019-05-12T05:33:48.698Z,1014.98
2019-05-12T05:34:53.689Z,1014.71
2019-05-12T05:35:48.723Z,1014.68
2019-05-12T05:36:51.092Z,1014.82
2019-05-12T05:37:48.771Z,1014.81
2019-05-12T05:38:51.172Z,1014.75
2019-05-12T05:39:49.797Z,1014.82
2019-05-12T05:40:48.821Z,1014.97
2019-05-12T05:41:50.935Z,1014.90
2019-05-12T05:42:48.846Z,1015.15
2019-05-12T05:43:54.258Z,1015.27
2019-05-12T05:44:48.872Z,1015.28
2019-05-12T05:45:48.897Z,1015.06
2019-05-12T05:46:50.298Z,1014.96
2019-05-12T05:47:49.179Z,1016.15
2019-05-12T05:48:48.941Z,1015.14
2019-05-12T05:49:48.958Z,1015.07
2019-05-12T05:50:48.980Z,1015.05
2019-05-12T05:51:54.339Z,1015.42
2019-05-12T05:52:49.013Z,1015.14
2019-05-12T05:53:50.178Z,1015.52
2019-05-12T05:54:49.047Z,1015.26
2019-05-12T05:55:50.409Z,1015.18
2019-05-12T05:56:58.440Z,1015.40
2019-05-12T05:57:49.097Z,1015.32
2019-05-12T05:58:51.914Z,1015.32
2019-05-12T05:59:49.133Z,1016.68
2019-05-12T06:00:54.816Z,1017.87
2019-05-12T06:01:51.949Z,1015.38
2019-05-12T06:02:49.192Z,1017.67
2019-05-12T06:03:49.199Z,1015.50
2019-05-12T06:04:49.898Z,1015.45
2019-05-12T06:05:49.240Z,1015.55
2019-05-12T06:06:52.796Z,1015.51
2019-05-12T06:07:49.267Z,1016.83
2019-05-12T06:08:49.294Z,1015.70
2019-05-12T06:09:49.313Z,1015.90
2019-05-12T06:10:49.339Z,1015.40
2019-05-12T06:11:49.344Z,1018.12
2019-05-12T06:12:50.945Z,1015.84
2019-05-12T06:13:49.385Z,1015.41
2019-05-12T06:14:55.207Z,1015.37
2019-05-12T06:15:49.418Z,1015.24
2019-05-12T06:16:49.435Z,1015.14
2019-05-12T06:17:49.453Z,1015.29
2019-05-12T06:18:49.470Z,1015.41
2019-05-12T06:19:49.482Z,1015.38
2019-05-12T06:20:49.509Z,1015.26
2019-05-12T06:21:49.525Z,1015.31
2019-05-12T06:22:54.570Z,1015.24
2019-05-12T06:23:49.558Z,1015.33
2019-05-12T06:24:54.859Z,1015.18
2019-05-12T06:25:51.609Z,1015.24
2019-05-12T06:26:57.657Z,1015.19
2019-05-12T06:27:51.130Z,1015.46
2019-05-12T06:28:49.656Z,1015.18
2019-05-12T06:29:54.447Z,1015.35
2019-05-12T06:30:50.356Z,1015.25
2019-05-12T06:31:49.717Z,1015.40
2019-05-12T06:32:51.804Z,1015.28
2019-05-12T06:33:49.746Z,1015.27
2019-05-12T06:34:50.833Z,1015.54
2019-05-12T06:35:49.784Z,1015.49
2019-05-12T06:36:49.796Z,1015.64
2019-05-12T06:37:57.762Z,1015.55
2019-05-12T06:38:49.851Z,1015.83
2019-05-12T06:39:51.021Z,1015.94
2019-05-12T06:40:49.892Z,1016.24
2019-05-12T06:41:49.877Z,1015.90
2019-05-12T06:42:53.971Z,1015.76
2019-05-12T06:43:49.945Z,1016.08
2019-05-12T06:44:54.893Z,1015.58
2019-05-12T06:45:49.967Z,1015.37
2019-05-12T06:46:53.574Z,1015.29
2019-05-12T06:47:51.733Z,1015.40
2019-05-12T06:48:50.022Z,1015.39
2019-05-12T06:49:56.458Z,1015.44
2019-05-12T06:50:50.065Z,1015.46
2019-05-12T06:51:53.783Z,1015.41
2019-05-12T06:52:50.076Z,1015.52
2019-05-12T06:53:50.091Z,1015.64
2019-05-12T06:54:56.425Z,1015.53
2019-05-12T06:55:50.125Z,1015.87
2019-05-12T06:56:55.291Z,1017.22
2019-05-12T06:57:50.406Z,1015.98
2019-05-12T06:58:50.182Z,1015.61
2019-05-12T06:59:51.425Z,1015.60
2019-05-12T07:00:50.224Z,1015.69
2019-05-12T07:01:54.966Z,1015.83
2019-05-12T07:02:54.739Z,1018.59
2019-05-12T07:03:50.271Z,1017.61
2019-05-12T07:04:56.616Z,1015.63
2019-05-12T07:05:50.303Z,1015.56
2019-05-12T07:06:56.160Z,1015.81
2019-05-12T07:07:50.340Z,1016.49
2019-05-12T07:09:02.285Z,1015.93
2019-05-12T07:09:53.747Z,1015.76
2019-05-12T07:10:59.782Z,1016.25
2019-05-12T07:12:01.765Z,1018.07
2019-05-12T07:12:58.825Z,1015.89
2019-05-12T07:14:01.292Z,1016.60
2019-05-12T07:14:55.626Z,1016.09
2019-05-12T07:15:50.485Z,1015.90
2019-05-12T07:16:55.055Z,1015.84
2019-05-12T07:17:50.519Z,1015.75
2019-05-12T07:18:50.542Z,1015.94
2019-05-12T07:19:56.354Z,1015.86
2019-05-12T07:20:50.584Z,1015.87
2019-05-12T07:21:55.405Z,1016.10
2019-05-12T07:22:50.613Z,1016.13
2019-05-12T07:23:50.629Z,1016.08
2019-05-12T07:24:52.803Z,1020.83
2019-05-12T07:25:50.660Z,1016.17
2019-05-12T07:26:56.320Z,1016.19
2019-05-12T07:27:54.905Z,1016.04
2019-05-12T07:28:50.742Z,1020.63
2019-05-12T07:29:50.742Z,1018.46
2019-05-12T07:30:50.753Z,1016.58
2019-05-12T07:31:50.780Z,1016.14
2019-05-12T07:32:51.233Z,1016.01
2019-05-12T07:33:54.006Z,1016.01
2019-05-12T07:34:50.831Z,1016.12
2019-05-12T07:35:53.465Z,1015.94
2019-05-12T07:36:50.873Z,1015.90
2019-05-12T07:37:50.891Z,1015.90
2019-05-12T07:38:55.853Z,1015.93
2019-05-12T07:39:50.927Z,1015.93
2019-05-12T07:40:51.027Z,1016.14
2019-05-12T07:41:52.164Z,1016.16
2019-05-12T07:42:50.999Z,1016.14
2019-05-12T07:43:56.693Z,1016.04
2019-05-12T07:44:51.021Z,1016.17
2019-05-12T07:45:53.938Z,1016.26
2019-05-12T07:46:51.068Z,1016.25
2019-05-12T07:47:51.075Z,1016.30
2019-05-12T07:48:51.105Z,1016.31
2019-05-12T07:49:53.610Z,1016.37
2019-05-12T07:50:56.458Z,1016.22
2019-05-12T07:51:51.215Z,1016.37
2019-05-12T07:52:51.223Z,1016.31
2019-05-12T07:53:55.390Z,1016.48
2019-05-12T07:54:53.713Z,1016.48
2019-05-12T07:55:53.180Z,1016.46
2019-05-12T07:56:53.805Z,1016.40
2019-05-12T07:57:57.896Z,1016.39
2019-05-12T07:58:56.496Z,1016.37
2019-05-12T07:59:51.300Z,1016.37
2019-05-12T08:00:53.944Z,1016.38
2019-05-12T08:01:54.332Z,1016.35
2019-05-12T08:02:53.557Z,1016.30
2019-05-12T08:03:57.329Z,1016.29
2019-05-12T08:04:51.399Z,1016.36
2019-05-12T08:05:56.343Z,1016.27
2019-05-12T08:06:53.688Z,1016.26
2019-05-12T08:07:53.452Z,1016.32
2019-05-12T08:08:58.147Z,1016.37
2019-05-12T08:09:53.545Z,1016.33
2019-05-12T08:10:55.661Z,1016.35
2019-05-12T08:11:53.909Z,1016.43
2019-05-12T08:12:59.566Z,1016.33
2019-05-12T08:13:54.103Z,1016.34
2019-05-12T08:14:51.604Z,1016.38
2019-05-12T08:15:55.604Z,1016.36
2019-05-12T08:16:54.112Z,1016.34
2019-05-12T08:17:55.306Z,1016.28
2019-05-12T08:18:53.491Z,1016.37
2019-05-12T08:19:53.618Z,1016.46
2019-05-12T08:20:53.779Z,1016.30
2019-05-12T08:21:53.613Z,1016.30
2019-05-12T08:22:54.014Z,1016.34
2019-05-12T08:23:53.450Z,1016.33
2019-05-12T08:24:53.776Z,1016.26
2019-05-12T08:25:53.838Z,1016.22
2019-05-12T08:26:59.706Z,1016.23
2019-05-12T08:27:59.380Z,1016.24
2019-05-12T08:28:53.541Z,1016.17
2019-05-12T08:30:00.834Z,1016.35
2019-05-12T08:30:52.708Z,1016.24
2019-05-12T08:31:54.617Z,1016.17
2019-05-12T08:32:56.344Z,1016.22
2019-05-12T08:33:53.787Z,1016.23
2019-05-12T08:34:54.134Z,1016.25
2019-05-12T08:35:52.020Z,1016.27
2019-05-12T08:36:56.725Z,1016.12
2019-05-12T08:37:54.332Z,1016.20
2019-05-12T08:38:53.634Z,1016.21
2019-05-12T08:40:02.174Z,1016.17
2019-05-12T08:40:54.205Z,1016.23
2019-05-12T08:41:53.483Z,1016.22
2019-05-12T08:42:53.993Z,1016.18
2019-05-12T08:43:57.884Z,1016.16
2019-05-12T08:44:54.117Z,1016.27
2019-05-12T08:45:53.596Z,1016.18
2019-05-12T08:46:56.358Z,1016.23
2019-05-12T08:47:54.154Z,1016.16
2019-05-12T08:48:57.840Z,1016.12
2019-05-12T08:49:58.292Z,1016.20
2019-05-12T08:50:54.532Z,1016.25
2019-05-12T08:51:55.754Z,1016.27
2019-05-12T08:52:53.838Z,1016.16
2019-05-12T08:53:53.921Z,1016.14
2019-05-12T08:54:53.658Z,1016.13
2019-05-12T08:55:53.843Z,1016.20
2019-05-12T08:56:59.355Z,1016.26
2019-05-12T08:57:54.192Z,1016.27
2019-05-12T08:58:54.358Z,1016.23
2019-05-12T08:59:54.596Z,1016.29
2019-05-12T09:00:54.747Z,1016.32
2019-05-12T09:01:54.018Z,1016.30
2019-05-12T09:02:53.930Z,1016.11
2019-05-12T09:03:53.349Z,1016.34
2019-05-12T09:04:55.559Z,1016.36
2019-05-12T09:05:53.688Z,1016.37
2019-05-12T09:06:56.383Z,1016.40
2019-05-12T09:07:54.072Z,1016.30
2019-05-12T09:08:54.229Z,1016.36
2019-05-12T09:09:53.343Z,1016.33
2019-05-12T09:10:55.348Z,1016.29
2019-05-12T09:11:54.213Z,1016.36
2019-05-12T09:12:54.156Z,1016.26
2019-05-12T09:14:00.196Z,1016.26
2019-05-12T09:14:54.569Z,1016.38
2019-05-12T09:15:54.139Z,1016.41
2019-05-12T09:16:53.712Z,1016.39
2019-05-12T09:17:56.878Z,1016.33
2019-05-12T09:18:55.142Z,1016.28
2019-05-12T09:19:54.986Z,1016.25
2019-05-12T09:20:55.503Z,1016.27
2019-05-12T09:21:54.217Z,1016.33
2019-05-12T09:23:00.663Z,1016.39
2019-05-12T09:23:55.854Z,1016.36
2019-05-12T09:24:53.413Z,1016.39
2019-05-12T09:25:53.721Z,1016.40
2019-05-12T09:26:53.842Z,1016.47
2019-05-12T09:27:54.241Z,1016.32
2019-05-12T09:28:54.306Z,1016.38
2019-05-12T09:29:53.995Z,1016.42
2019-05-12T09:30:54.354Z,1016.44
2019-05-12T09:31:53.222Z,1016.42
2019-05-12T09:32:55.984Z,1016.44
2019-05-12T09:33:54.708Z,1016.41
2019-05-12T09:34:58.111Z,1016.45
2019-05-12T09:35:54.043Z,1016.42
2019-05-12T09:36:59.610Z,1016.39
2019-05-12T09:37:53.594Z,1016.38
2019-05-12T09:39:01.299Z,1016.37
2019-05-12T09:39:53.846Z,1016.42
2019-05-12T09:41:00.733Z,1016.50
2019-05-12T09:41:55.292Z,1016.53
2019-05-12T09:42:53.356Z,1016.49
2019-05-12T09:43:53.507Z,1016.47
2019-05-12T09:44:53.956Z,1016.41
2019-05-12T09:45:56.474Z,1016.50
2019-05-12T09:46:53.536Z,1016.56
2019-05-12T09:47:53.990Z,1016.61
2019-05-12T09:48:55.093Z,1016.51
2019-05-12T09:49:53.620Z,1016.55
2019-05-12T09:51:00.365Z,1016.54
2019-05-12T09:51:54.385Z,1016.50
2019-05-12T09:52:55.531Z,1016.52
2019-05-12T09:53:55.501Z,1016.48
2019-05-12T09:54:53.537Z,1016.53
2019-05-12T09:55:53.904Z,1016.46
2019-05-12T09:56:55.422Z,1016.47
2019-05-12T09:57:54.394Z,1016.50
2019-05-12T09:59:01.480Z,1016.53
2019-05-12T09:59:58.262Z,1016.57
2019-05-12T10:00:54.350Z,1016.61
2019-05-12T10:01:54.184Z,1016.66
2019-05-12T10:02:59.381Z,1016.63
2019-05-12T10:03:54.427Z,1016.71
2019-05-12T10:04:56.349Z,1016.68
2019-05-12T10:05:53.666Z,1016.69
2019-05-12T10:06:53.672Z,1016.78
2019-05-12T10:07:53.706Z,1016.76
2019-05-12T10:08:54.884Z,1016.80
2019-05-12T10:09:55.032Z,1016.71
2019-05-12T10:10:53.779Z,1016.70
2019-05-12T10:12:00.309Z,1016.71
2019-05-12T10:12:53.808Z,1016.76
2019-05-12T10:13:54.352Z,1016.76
2019-05-12T10:14:53.897Z,1016.83
2019-05-12T10:15:58.683Z,1016.78
2019-05-12T10:16:53.866Z,1016.83
2019-05-12T10:17:54.058Z,1016.73
2019-05-12T10:18:53.929Z,1016.78
2019-05-12T10:19:57.864Z,1016.79
2019-05-12T10:20:53.961Z,1016.86
2019-05-12T10:21:55.183Z,1016.88
2019-05-12T10:22:54.292Z,1016.85
2019-05-12T10:24:00.647Z,1016.83
2019-05-12T10:24:57.877Z,1016.74
2019-05-12T10:25:54.028Z,1016.77
2019-05-12T10:26:54.277Z,1016.75
2019-05-12T10:27:54.091Z,1016.73
2019-05-12T10:28:58.198Z,1016.67
2019-05-12T10:29:54.272Z,1016.66
2019-05-12T10:30:56.933Z,1016.70
2019-05-12T10:31:54.143Z,1016.71
2019-05-12T10:32:54.182Z,1016.74
2019-05-12T10:33:57.158Z,1016.73
2019-05-12T10:34:54.192Z,1016.68
2019-05-12T10:35:54.293Z,1016.71
2019-05-12T10:36:54.257Z,1016.73
2019-05-12T10:37:54.255Z,1016.68
2019-05-12T10:38:54.284Z,1016.71
2019-05-12T10:39:54.291Z,1016.79
2019-05-12T10:40:54.304Z,1016.86
2019-05-12T10:41:54.815Z,1016.80
2019-05-12T10:42:54.365Z,1016.88
2019-05-12T10:43:57.807Z,1016.95
2019-05-12T10:44:56.565Z,1016.89
2019-05-12T10:45:54.438Z,1016.91
2019-05-12T10:46:54.411Z,1016.89
2019-05-12T10:47:54.458Z,1016.89
2019-05-12T10:48:54.454Z,1016.89
2019-05-12T10:49:54.485Z,1016.87
2019-05-12T10:50:54.491Z,1016.96
2019-05-12T10:51:54.511Z,1016.87
2019-05-12T10:52:54.537Z,1016.79
2019-05-12T10:53:57.404Z,1016.69
2019-05-12T10:54:54.587Z,1016.69
2019-05-12T10:55:54.596Z,1016.75
2019-05-12T10:56:54.858Z,1016.72
2019-05-12T10:58:01.586Z,1016.80
2019-05-12T10:58:54.673Z,1016.79
2019-05-12T10:59:54.661Z,1016.80
2019-05-12T11:00:58.812Z,1016.97
2019-05-12T11:01:54.691Z,1016.89
2019-05-12T11:02:54.716Z,1016.88
2019-05-12T11:03:54.757Z,1016.91
2019-05-12T11:04:54.750Z,1016.82
2019-05-12T11:06:02.332Z,1016.98
2019-05-12T11:06:54.785Z,1016.97
2019-05-12T11:07:54.834Z,1016.92
2019-05-12T11:08:54.827Z,1016.97
2019-05-12T11:09:54.842Z,1016.94
2019-05-12T11:10:57.680Z,1017.02
2019-05-12T11:11:54.895Z,1017.06
2019-05-12T11:12:59.212Z,1017.09
2019-05-12T11:13:54.972Z,1017.03
2019-05-12T11:14:54.935Z,1017.10
2019-05-12T11:15:54.950Z,1017.01
2019-05-12T11:16:54.972Z,1016.97
2019-05-12T11:17:54.993Z,1017.01
2019-05-12T11:18:55.013Z,1016.95
2019-05-12T11:19:55.030Z,1016.95
2019-05-12T11:20:55.046Z,1016.94
2019-05-12T11:21:55.085Z,1016.90
2019-05-12T11:22:55.107Z,1016.87
2019-05-12T11:23:55.100Z,1016.87
2019-05-12T11:24:55.872Z,1016.99
2019-05-12T11:25:55.168Z,1016.93
2019-05-12T11:26:55.160Z,1016.95
2019-05-12T11:27:55.174Z,1016.99
2019-05-12T11:28:55.192Z,1017.02
2019-05-12T11:29:55.235Z,1016.97
2019-05-12T11:30:55.230Z,1016.97
2019-05-12T11:31:55.250Z,1017.11
2019-05-12T11:32:55.264Z,1017.05
2019-05-12T11:33:55.284Z,1017.07
2019-05-12T11:34:55.315Z,1017.12
2019-05-12T11:35:55.324Z,1017.13
2019-05-12T11:36:55.336Z,1017.12
2019-05-12T11:37:55.365Z,1017.09
2019-05-12T11:38:55.383Z,1017.11
2019-05-12T11:39:55.394Z,1017.11
2019-05-12T11:40:55.419Z,1017.14
2019-05-12T11:41:55.533Z,1017.13
2019-05-12T11:42:59.837Z,1017.14
2019-05-12T11:43:55.498Z,1017.10
2019-05-12T11:44:55.486Z,1017.12
2019-05-12T11:45:55.510Z,1017.15
2019-05-12T11:46:55.522Z,1017.08
2019-05-12T11:47:59.122Z,1017.00
2019-05-12T11:48:55.563Z,1016.96
2019-05-12T11:49:58.541Z,1016.93
2019-05-12T11:50:55.635Z,1016.93
2019-05-12T11:51:55.647Z,1016.96
2019-05-12T11:52:55.643Z,1017.05
2019-05-12T11:53:55.654Z,1017.14
2019-05-12T11:54:55.728Z,1017.14
2019-05-12T11:55:55.747Z,1017.07
2019-05-12T11:56:55.745Z,1017.07
2019-05-12T11:58:00.459Z,1017.12
2019-05-12T11:58:55.758Z,1017.13
2019-05-12T12:00:02.011Z,1017.07
2019-05-12T12:00:58.650Z,1017.06
2019-05-12T12:01:56.167Z,1017.16
2019-05-12T12:02:55.833Z,1017.09
2019-05-12T12:03:55.849Z,1017.23
2019-05-12T12:04:55.858Z,1017.14
2019-05-12T12:05:55.932Z,1017.14